createdAt,value
2018-09-14T00:02:19.568Z,7.10
2018-09-14T00:04:46.782Z,7.10
2018-09-14T00:07:13.967Z,8.73
2018-09-14T00:09:41.147Z,8.40
2018-09-14T00:12:08.348Z,8.93
2018-09-14T00:14:35.546Z,7.87
2018-09-14T00:17:02.731Z,8.07
2018-09-14T00:19:30.074Z,8.63
2018-09-14T00:21:57.226Z,7.77
2018-09-14T00:24:24.421Z,9.70
2018-09-14T00:26:51.619Z,13.43
2018-09-14T00:29:18.807Z,11.53
2018-09-14T00:31:45.982Z,12.50
2018-09-14T00:34:13.203Z,12.80
2018-09-14T00:36:40.374Z,12.20
2018-09-14T00:39:08.091Z,12.40
2018-09-14T00:41:35.292Z,10.63
2018-09-14T00:44:02.644Z,13.40
2018-09-14T00:46:29.822Z,12.07
2018-09-14T00:48:56.990Z,11.30
2018-09-14T00:51:24.182Z,14.83
2018-09-14T00:53:51.395Z,14.30
2018-09-14T00:56:18.615Z,13.40
2018-09-14T00:58:45.775Z,13.27
2018-09-14T01:01:12.978Z,13.40
2018-09-14T01:03:40.176Z,11.80
2018-09-14T01:06:07.343Z,13.60
2018-09-14T01:08:34.506Z,14.50
2018-09-14T01:11:02.455Z,12.63
2018-09-14T01:13:29.646Z,15.73
2018-09-14T01:15:56.831Z,13.17
2018-09-14T01:18:23.994Z,13.40
2018-09-14T01:20:51.183Z,15.33
2018-09-14T01:23:18.360Z,16.00
2018-09-14T01:25:45.537Z,14.57
2018-09-14T01:28:12.710Z,17.47
2018-09-14T01:30:39.896Z,19.67
2018-09-14T01:33:07.070Z,19.10
2018-09-14T01:35:39.695Z,16.73
2018-09-14T01:38:06.866Z,17.60
2018-09-14T01:40:34.038Z,16.20
2018-09-14T01:43:01.583Z,16.90
2018-09-14T01:45:28.801Z,17.20
2018-09-14T01:47:55.992Z,15.47
2018-09-14T01:50:23.203Z,16.67
2018-09-14T01:52:50.363Z,17.50
2018-09-14T01:55:17.552Z,17.40
2018-09-14T01:57:44.710Z,17.37
2018-09-14T02:00:11.903Z,16.83
2018-09-14T02:02:39.079Z,15.80
2018-09-14T02:05:06.371Z,17.70
2018-09-14T02:07:33.555Z,14.30
2018-09-14T02:10:00.750Z,16.80
2018-09-14T02:12:27.932Z,17.43
2018-09-14T02:14:55.514Z,14.93
2018-09-14T02:17:22.678Z,16.57
2018-09-14T02:19:49.865Z,18.73
2018-09-14T02:22:17.076Z,20.27
2018-09-14T02:24:44.246Z,17.50
2018-09-14T02:27:11.438Z,18.87
2018-09-14T02:29:38.843Z,17.10
2018-09-14T02:32:06.083Z,18.50
2018-09-14T02:34:33.386Z,18.30
2018-09-14T02:37:01.167Z,19.47
2018-09-14T02:39:28.365Z,20.87
2018-09-14T02:41:55.552Z,19.47
2018-09-14T02:44:22.720Z,20.70
2018-09-14T02:46:49.934Z,18.63
2018-09-14T02:49:17.092Z,20.30
2018-09-14T02:51:44.283Z,16.13
2018-09-14T02:54:11.483Z,16.67
2018-09-14T02:56:38.655Z,20.63
2018-09-14T02:59:05.864Z,18.50
2018-09-14T03:01:33.032Z,19.20
2018-09-14T03:04:00.214Z,17.10
2018-09-14T03:06:27.385Z,15.07
2018-09-14T03:08:54.576Z,19.07
2018-09-14T03:11:21.758Z,16.77
2018-09-14T03:13:48.959Z,15.50
2018-09-14T03:16:16.150Z,16.90
2018-09-14T03:18:43.401Z,20.07
2018-09-14T03:21:10.592Z,19.43
2018-09-14T03:23:37.746Z,19.87
2018-09-14T03:26:04.962Z,21.73
2018-09-14T03:28:32.118Z,17.17
2018-09-14T03:30:59.320Z,19.93
2018-09-14T03:33:26.675Z,17.40
2018-09-14T03:35:53.833Z,16.70
2018-09-14T03:38:21.004Z,18.53
2018-09-14T03:40:48.205Z,17.83
2018-09-14T03:43:15.358Z,20.13
2018-09-14T03:45:42.598Z,19.23
2018-09-14T03:48:09.758Z,18.30
2018-09-14T03:50:36.926Z,20.60
2018-09-14T03:53:04.103Z,18.00
2018-09-14T03:55:31.273Z,17.03
2018-09-14T03:57:58.450Z,21.00
2018-09-14T04:00:25.640Z,18.33
2018-09-14T04:02:52.790Z,20.57
2018-09-14T04:05:19.991Z,18.53
2018-09-14T04:07:47.171Z,18.83
2018-09-14T04:10:14.331Z,18.90
2018-09-14T04:12:41.533Z,17.57
2018-09-14T04:15:08.721Z,17.43
2018-09-14T04:17:35.943Z,20.80
2018-09-14T04:20:04.300Z,20.77
2018-09-14T04:22:31.455Z,18.37
2018-09-14T04:24:58.649Z,20.97
2018-09-14T04:27:25.853Z,22.40
2018-09-14T04:29:53.071Z,20.97
2018-09-14T04:32:20.304Z,18.53
2018-09-14T04:34:47.484Z,21.83
2018-09-14T04:37:14.916Z,21.27
2018-09-14T04:39:42.287Z,20.87
2018-09-14T04:42:09.494Z,19.33
2018-09-14T04:44:36.711Z,25.40
2018-09-14T04:47:03.927Z,23.60
2018-09-14T04:49:31.179Z,22.10
2018-09-14T04:51:58.367Z,23.73
2018-09-14T04:54:25.561Z,29.13
2018-09-14T04:56:52.748Z,22.90
2018-09-14T04:59:19.922Z,24.00
2018-09-14T05:01:47.108Z,21.47
2018-09-14T05:04:14.291Z,24.97
2018-09-14T05:06:41.451Z,22.43
2018-09-14T05:09:08.904Z,23.60
2018-09-14T05:11:36.106Z,23.37
2018-09-14T05:14:03.363Z,26.70
2018-09-14T05:16:30.476Z,23.57
2018-09-14T05:18:57.663Z,20.53
2018-09-14T05:21:24.874Z,21.90
2018-09-14T05:23:52.095Z,26.27
2018-09-14T05:26:19.251Z,25.37
2018-09-14T05:28:46.425Z,20.83
2018-09-14T05:31:13.649Z,27.63
2018-09-14T05:33:40.806Z,26.60
2018-09-14T05:36:07.996Z,31.20
2018-09-14T05:38:35.154Z,23.10
2018-09-14T05:41:03.266Z,23.73
2018-09-14T05:43:30.469Z,23.80
2018-09-14T05:45:57.642Z,20.70
2018-09-14T05:48:24.816Z,23.17
2018-09-14T05:50:51.995Z,23.77
2018-09-14T05:53:19.192Z,19.67
2018-09-14T05:55:46.342Z,22.97
2018-09-14T05:58:13.530Z,21.40
2018-09-14T06:00:41.663Z,21.10
2018-09-14T06:03:08.869Z,19.60
2018-09-14T06:05:36.023Z,22.50
2018-09-14T06:08:03.208Z,19.63
2018-09-14T06:10:30.379Z,19.10
2018-09-14T06:12:57.562Z,16.63
2018-09-14T06:15:24.716Z,16.73
2018-09-14T06:17:51.914Z,16.10
2018-09-14T06:20:19.067Z,17.87
2018-09-14T06:22:46.283Z,16.60
2018-09-14T06:25:13.418Z,13.80
2018-09-14T06:27:40.609Z,16.03
2018-09-14T06:30:07.830Z,16.00
2018-09-14T06:32:34.982Z,17.77
2018-09-14T06:35:02.759Z,16.77
2018-09-14T06:37:29.952Z,12.67
2018-09-14T06:39:57.116Z,15.57
2018-09-14T06:42:24.266Z,17.13
2018-09-14T06:44:51.674Z,12.90
2018-09-14T06:47:18.859Z,14.33
2018-09-14T06:49:46.051Z,14.37
2018-09-14T06:52:13.254Z,14.07
2018-09-14T06:54:40.422Z,10.57
2018-09-14T06:57:07.653Z,10.73
2018-09-14T06:59:34.846Z,11.13
2018-09-14T07:02:01.999Z,11.00
2018-09-14T07:04:29.191Z,10.70
2018-09-14T07:06:56.343Z,10.50
2018-09-14T07:09:23.527Z,8.40
2018-09-14T07:11:50.713Z,8.43
2018-09-14T07:14:17.867Z,16.17
2018-09-14T07:16:45.028Z,11.53
2018-09-14T07:19:12.242Z,7.83
2018-09-14T07:21:39.453Z,12.73
2018-09-14T07:24:06.589Z,8.10
2018-09-14T07:26:33.775Z,8.40
2018-09-14T07:29:01.452Z,7.80
2018-09-14T07:31:28.639Z,11.37
2018-09-14T07:33:55.718Z,9.27
2018-09-14T07:36:22.943Z,11.17
2018-09-14T07:38:50.072Z,9.80
2018-09-14T07:41:17.251Z,9.20
2018-09-14T07:43:44.470Z,13.50
2018-09-14T07:46:11.648Z,7.97
2018-09-14T07:48:38.798Z,7.83
2018-09-14T07:51:06.107Z,11.03
2018-09-14T07:53:33.304Z,12.00
2018-09-14T07:56:00.463Z,11.43
2018-09-14T07:58:27.707Z,7.63
2018-09-14T08:00:54.859Z,9.33
2018-09-14T08:03:22.040Z,7.13
2018-09-14T08:05:49.216Z,9.90
2018-09-14T08:08:16.431Z,8.00
2018-09-14T08:10:43.579Z,7.47
2018-09-14T08:13:10.761Z,8.27
2018-09-14T08:15:37.930Z,12.07
2018-09-14T08:18:05.191Z,7.90
2018-09-14T08:20:32.599Z,6.60
2018-09-14T08:22:59.778Z,10.33
2018-09-14T08:25:26.951Z,6.90
2018-09-14T08:27:54.118Z,9.90
2018-09-14T08:30:21.294Z,11.23
2018-09-14T08:32:48.458Z,7.90
2018-09-14T08:35:15.638Z,7.80
2018-09-14T08:37:43.061Z,11.53
2018-09-14T08:40:10.255Z,7.90
2018-09-14T08:42:37.406Z,9.67
2018-09-14T08:45:04.753Z,11.73
2018-09-14T08:47:31.944Z,6.97
2018-09-14T08:49:59.099Z,11.40
2018-09-14T08:52:26.282Z,7.03
2018-09-14T08:54:53.466Z,8.77
2018-09-14T08:57:20.625Z,8.23
2018-09-14T08:59:47.804Z,6.40
2018-09-14T09:02:15.019Z,6.80
2018-09-14T09:04:42.528Z,9.37
2018-09-14T09:07:09.806Z,7.67
2018-09-14T09:09:37.272Z,8.20
2018-09-14T09:12:04.456Z,8.37
2018-09-14T09:14:31.609Z,9.70
2018-09-14T09:16:58.791Z,7.70
2018-09-14T09:19:25.989Z,6.47
2018-09-14T09:21:53.178Z,6.23
2018-09-14T09:24:20.369Z,8.13
2018-09-14T09:26:47.529Z,8.53
2018-09-14T09:29:14.753Z,7.17
2018-09-14T09:31:41.903Z,9.17
2018-09-14T09:34:09.087Z,8.30
2018-09-14T09:36:36.254Z,6.40
2018-09-14T09:39:05.099Z,8.23
2018-09-14T09:41:32.286Z,7.83
2018-09-14T09:43:59.515Z,10.37
2018-09-14T09:46:26.687Z,6.73
2018-09-14T09:48:53.884Z,6.27
2018-09-14T09:51:21.079Z,9.60
2018-09-14T09:53:48.241Z,5.30
2018-09-14T09:56:15.430Z,8.43
2018-09-14T09:58:42.623Z,5.50
2018-09-14T10:01:15.355Z,8.00
2018-09-14T10:03:44.554Z,7.67
2018-09-14T10:06:17.048Z,8.00
2018-09-14T10:08:44.232Z,5.30
2018-09-14T10:11:11.398Z,5.73
2018-09-14T10:13:38.674Z,7.00
2018-09-14T10:16:06.172Z,10.20
2018-09-14T10:18:33.381Z,7.77
2018-09-14T10:21:00.595Z,7.10
2018-09-14T10:23:27.706Z,9.23
2018-09-14T10:25:54.889Z,5.97
2018-09-14T10:28:22.051Z,7.50
2018-09-14T10:30:49.237Z,7.37
2018-09-14T10:33:16.387Z,9.33
2018-09-14T10:35:43.577Z,10.67
2018-09-14T10:38:10.736Z,8.40
2018-09-14T10:40:38.149Z,7.00
2018-09-14T10:43:05.290Z,7.43
2018-09-14T10:45:32.488Z,6.13
2018-09-14T10:47:59.776Z,6.80
2018-09-14T10:50:26.926Z,9.40
2018-09-14T10:52:54.120Z,7.50
2018-09-14T10:55:21.355Z,6.87
2018-09-14T10:57:48.483Z,8.63
2018-09-14T11:00:15.642Z,8.10
2018-09-14T11:02:42.826Z,7.50
2018-09-14T11:05:10.003Z,6.00
2018-09-14T11:07:37.194Z,7.27
2018-09-14T11:10:04.443Z,9.13
2018-09-14T11:12:31.592Z,9.13
2018-09-14T11:14:58.781Z,8.30
2018-09-14T11:17:25.942Z,5.20
2018-09-14T11:19:53.140Z,7.27
2018-09-14T11:22:20.302Z,7.30
2018-09-14T11:24:47.630Z,8.90
2018-09-14T11:27:15.099Z,6.33
2018-09-14T11:29:42.296Z,8.27
2018-09-14T11:32:09.489Z,7.43
2018-09-14T11:34:36.651Z,5.60
2018-09-14T11:37:04.177Z,6.57
2018-09-14T11:39:31.338Z,8.97
2018-09-14T11:41:58.519Z,6.43
2018-09-14T11:44:25.695Z,5.37
2018-09-14T11:46:52.881Z,5.87
2018-09-14T11:49:20.134Z,12.67
2018-09-14T11:51:47.301Z,6.10
2018-09-14T11:54:14.508Z,7.23
2018-09-14T11:56:41.696Z,9.27
2018-09-14T11:59:08.866Z,8.63
2018-09-14T12:01:36.035Z,10.80
2018-09-14T12:04:03.229Z,5.50
2018-09-14T12:06:30.651Z,5.83
2018-09-14T12:08:57.886Z,7.33
2018-09-14T12:11:25.047Z,4.97
2018-09-14T12:13:52.314Z,4.53
2018-09-14T12:16:19.441Z,6.23
2018-09-14T12:18:46.656Z,6.10
2018-09-14T12:21:13.851Z,13.70
2018-09-14T12:23:41.044Z,5.60
2018-09-14T12:26:08.206Z,6.03
2018-09-14T12:28:35.392Z,4.93
2018-09-14T12:31:02.951Z,4.90
2018-09-14T12:33:30.146Z,5.60
2018-09-14T12:35:57.298Z,6.20
2018-09-14T12:38:24.482Z,8.33
2018-09-14T12:40:51.690Z,5.97
2018-09-14T12:43:18.891Z,4.97
2018-09-14T12:45:46.090Z,5.93
2018-09-14T12:48:13.254Z,5.93
2018-09-14T12:50:40.438Z,5.63
2018-09-14T12:53:07.647Z,6.20
2018-09-14T12:55:34.816Z,6.43
2018-09-14T12:58:01.980Z,6.50
2018-09-14T13:00:29.191Z,6.47
2018-09-14T13:02:56.359Z,5.47
2018-09-14T13:05:23.557Z,5.00
2018-09-14T13:07:50.715Z,6.50
2018-09-14T13:10:17.882Z,7.13
2018-09-14T13:12:45.158Z,4.23
2018-09-14T13:15:12.325Z,6.57
2018-09-14T13:17:39.759Z,7.30
2018-09-14T13:20:06.992Z,4.40
2018-09-14T13:22:34.342Z,5.43
2018-09-14T13:25:01.881Z,5.97
2018-09-14T13:27:29.068Z,4.93
2018-09-14T13:29:56.253Z,6.83
2018-09-14T13:32:23.452Z,5.27
2018-09-14T13:34:50.627Z,6.40
2018-09-14T13:37:17.822Z,9.70
2018-09-14T13:39:45.011Z,5.50
2018-09-14T13:42:12.196Z,7.13
2018-09-14T13:44:39.387Z,5.13
2018-09-14T13:47:06.604Z,4.23
2018-09-14T13:49:33.811Z,4.73
2018-09-14T13:52:01.662Z,5.43
2018-09-14T13:54:28.839Z,4.20
2018-09-14T13:59:29.693Z,5.90
2018-09-14T14:01:56.887Z,5.63
2018-09-14T14:04:24.093Z,5.13
2018-09-14T14:06:51.262Z,5.90
2018-09-14T14:09:18.448Z,6.00
2018-09-14T14:11:45.611Z,9.60
2018-09-14T14:14:12.828Z,5.60
2018-09-14T14:16:40.149Z,4.93
2018-09-14T14:19:07.328Z,4.37
2018-09-14T14:21:34.497Z,5.33
2018-09-14T14:24:01.848Z,5.63
2018-09-14T14:26:29.011Z,4.20
2018-09-14T14:28:56.367Z,8.27
2018-09-14T14:31:23.528Z,5.77
2018-09-14T14:33:51.578Z,4.60
2018-09-14T14:36:18.768Z,6.63
2018-09-14T14:38:45.962Z,8.53
2018-09-14T14:41:13.140Z,4.83
2018-09-14T14:43:40.330Z,4.67
2018-09-14T14:46:07.543Z,4.73
2018-09-14T14:48:34.755Z,5.77
2018-09-14T14:51:03.186Z,5.40
2018-09-14T14:53:30.378Z,4.20
2018-09-14T14:55:57.556Z,4.63
2018-09-14T14:58:24.745Z,5.87
2018-09-14T15:00:51.899Z,5.70
2018-09-14T15:03:19.059Z,5.60
2018-09-14T15:05:46.256Z,5.60
2018-09-14T15:08:13.430Z,11.43
2018-09-14T15:10:40.690Z,7.53
2018-09-14T15:13:07.840Z,10.20
2018-09-14T15:15:35.007Z,5.43
2018-09-14T15:18:03.152Z,5.70
2018-09-14T15:20:30.359Z,6.47
2018-09-14T15:22:57.519Z,6.23
2018-09-14T15:25:24.692Z,6.93
2018-09-14T15:27:51.899Z,6.57
2018-09-14T15:30:19.086Z,6.37
2018-09-14T15:32:46.278Z,10.00
2018-09-14T15:35:13.442Z,4.57
2018-09-14T15:37:40.626Z,4.77
2018-09-14T15:40:07.835Z,4.33
2018-09-14T15:42:35.007Z,10.33
2018-09-14T15:45:02.991Z,11.23
2018-09-14T15:47:30.162Z,6.73
2018-09-14T15:49:57.354Z,8.80
2018-09-14T15:52:24.524Z,4.80
2018-09-14T15:54:51.718Z,8.33
2018-09-14T15:57:18.890Z,6.33
2018-09-14T15:59:46.051Z,5.47
2018-09-14T16:02:13.300Z,5.10
2018-09-14T16:04:40.575Z,8.20
2018-09-14T16:07:07.774Z,5.90
2018-09-14T16:09:35.855Z,4.97
2018-09-14T16:12:03.258Z,6.90
2018-09-14T16:14:30.437Z,5.93
2018-09-14T16:16:57.630Z,6.00
2018-09-14T16:19:24.787Z,4.53
2018-09-14T16:21:52.013Z,5.37
2018-09-14T16:24:19.463Z,4.03
2018-09-14T16:26:46.640Z,5.20
2018-09-14T16:29:13.824Z,4.93
2018-09-14T16:31:41.235Z,7.50
2018-09-14T16:34:08.783Z,6.50
2018-09-14T16:36:36.062Z,7.43
2018-09-14T16:39:04.592Z,7.73
2018-09-14T16:41:31.788Z,4.97
2018-09-14T16:43:58.959Z,4.10
2018-09-14T16:46:26.131Z,5.07
2018-09-14T16:48:53.311Z,6.43
2018-09-14T16:51:20.517Z,8.17
2018-09-14T16:53:47.691Z,6.87
2018-09-14T16:56:21.478Z,7.33
2018-09-14T16:58:49.134Z,6.33
2018-09-14T17:01:16.298Z,5.47
2018-09-14T17:03:43.483Z,5.67
2018-09-14T17:06:10.646Z,7.43
2018-09-14T17:08:37.855Z,10.13
2018-09-14T17:11:05.060Z,5.60
2018-09-14T17:13:32.220Z,7.77
2018-09-14T17:15:59.375Z,6.80
2018-09-14T17:18:26.554Z,4.70
2018-09-14T17:20:53.747Z,12.43
2018-09-14T17:23:20.906Z,6.73
2018-09-14T17:25:48.101Z,5.10
2018-09-14T17:28:15.260Z,5.53
2018-09-14T17:30:42.437Z,6.53
2018-09-14T17:33:09.618Z,8.03
2018-09-14T17:35:36.815Z,9.50
2018-09-14T17:38:03.990Z,10.80
2018-09-14T17:40:32.012Z,8.77
2018-09-14T17:42:59.164Z,5.63
2018-09-14T17:45:26.357Z,5.87
2018-09-14T17:47:53.514Z,6.93
2018-09-14T17:50:20.702Z,7.00
2018-09-14T17:52:47.868Z,6.37
2018-09-14T17:55:15.058Z,8.30
2018-09-14T17:57:42.243Z,4.87
2018-09-14T18:00:09.520Z,9.70
2018-09-14T18:02:36.676Z,5.63
2018-09-14T18:05:09.293Z,9.17
2018-09-14T18:07:37.314Z,7.00
2018-09-14T18:10:04.590Z,6.77
2018-09-14T18:12:31.763Z,5.00
2018-09-14T18:14:58.926Z,5.53
2018-09-14T18:17:26.126Z,6.00
2018-09-14T18:19:53.308Z,6.63
2018-09-14T18:22:20.554Z,5.80
2018-09-14T18:24:47.718Z,5.77
2018-09-14T18:27:14.898Z,8.60
2018-09-14T18:29:42.068Z,6.20
2018-09-14T18:32:09.239Z,5.63
2018-09-14T18:34:36.431Z,5.30
2018-09-14T18:37:03.582Z,9.60
2018-09-14T18:39:31.088Z,5.10
2018-09-14T18:41:58.902Z,6.47
2018-09-14T18:44:26.110Z,5.17
2018-09-14T18:46:53.391Z,6.67
2018-09-14T18:49:20.635Z,6.97
2018-09-14T18:51:47.844Z,5.97
2018-09-14T18:54:15.087Z,7.90
2018-09-14T18:56:42.243Z,7.53
2018-09-14T18:59:09.488Z,4.90
2018-09-14T19:01:36.870Z,7.37
2018-09-14T19:04:04.094Z,7.33
2018-09-14T19:06:31.302Z,8.97
2018-09-14T19:08:58.550Z,8.60
2018-09-14T19:11:25.738Z,8.93
2018-09-14T19:13:52.907Z,4.93
2018-09-14T19:16:20.087Z,9.57
2018-09-14T19:18:47.539Z,6.60
2018-09-14T19:21:14.714Z,8.97
2018-09-14T19:23:42.003Z,4.57
2018-09-14T19:26:09.192Z,5.17
2018-09-14T19:28:36.353Z,4.60
2018-09-14T19:31:04.341Z,5.10
2018-09-14T19:33:31.511Z,4.60
2018-09-14T19:35:59.256Z,6.23
2018-09-14T19:38:26.508Z,4.47
2018-09-14T19:40:53.652Z,3.83
2018-09-14T19:43:20.806Z,4.30
2018-09-14T19:45:48.002Z,4.47
2018-09-14T19:48:15.180Z,6.73
2018-09-14T19:50:42.605Z,4.33
2018-09-14T19:53:09.786Z,4.30
2018-09-14T19:55:36.946Z,10.27
2018-09-14T19:58:04.326Z,17.87
2018-09-14T20:00:31.502Z,5.50
2018-09-14T20:02:58.693Z,9.40
2018-09-14T20:05:25.846Z,8.70
2018-09-14T20:07:53.057Z,6.47
2018-09-14T20:10:20.223Z,9.20
2018-09-14T20:12:47.461Z,11.13
2018-09-14T20:15:14.608Z,5.67
2018-09-14T20:17:42.000Z,12.80
2018-09-14T20:20:09.155Z,12.80
2018-09-14T20:22:36.571Z,24.57
2018-09-14T20:25:03.744Z,15.27
2018-09-14T20:27:30.946Z,7.87
2018-09-14T20:29:58.114Z,7.53
2018-09-14T20:32:25.286Z,8.20
2018-09-14T20:34:52.464Z,5.00
2018-09-14T20:37:19.711Z,5.67
2018-09-14T20:39:46.802Z,9.70
2018-09-14T20:42:13.980Z,5.60
2018-09-14T20:44:41.172Z,10.73
2018-09-14T20:47:08.357Z,8.10
2018-09-14T20:49:35.519Z,7.07
2018-09-14T20:54:36.732Z,7.10
2018-09-14T20:57:03.908Z,6.13
2018-09-14T20:59:31.062Z,10.47
2018-09-14T21:01:58.243Z,5.03
2018-09-14T21:04:25.467Z,10.77
2018-09-14T21:06:52.622Z,11.13
2018-09-14T21:09:19.809Z,5.70
2018-09-14T21:11:46.955Z,8.83
2018-09-14T21:14:14.138Z,11.10
2018-09-14T21:16:41.315Z,6.30
2018-09-14T21:19:08.512Z,8.13
2018-09-14T21:21:35.669Z,8.50
2018-09-14T21:24:03.270Z,10.23
2018-09-14T21:26:37.101Z,7.33
2018-09-14T21:29:04.282Z,6.40
2018-09-14T21:31:31.429Z,9.80
2018-09-14T21:33:58.602Z,8.73
2018-09-14T21:36:25.771Z,7.23
2018-09-14T21:38:52.917Z,10.17
2018-09-14T21:41:20.199Z,10.83
2018-09-14T21:43:47.363Z,12.53
2018-09-14T21:46:14.517Z,7.57
2018-09-14T21:48:41.718Z,10.07
2018-09-14T21:51:08.862Z,8.30
2018-09-14T21:53:36.104Z,8.23
2018-09-14T21:56:03.244Z,10.80
2018-09-14T21:58:30.424Z,8.93
2018-09-14T22:01:03.086Z,9.57
2018-09-14T22:03:30.264Z,9.03
2018-09-14T22:05:57.416Z,10.70
2018-09-14T22:08:24.727Z,10.83
2018-09-14T22:10:51.885Z,10.37
2018-09-14T22:13:19.473Z,11.00
2018-09-14T22:15:46.662Z,10.27
2018-09-14T22:18:13.858Z,11.33
2018-09-14T22:20:41.325Z,7.13
2018-09-14T22:23:08.558Z,7.43
2018-09-14T22:25:35.767Z,6.90
2018-09-14T22:28:02.945Z,9.13
2018-09-14T22:30:30.247Z,7.87
2018-09-14T22:32:57.399Z,8.17
2018-09-14T22:35:24.597Z,11.87
2018-09-14T22:37:51.792Z,8.33
2018-09-14T22:40:18.939Z,9.20
2018-09-14T22:42:46.090Z,8.77
2018-09-14T22:45:13.295Z,10.57
2018-09-14T22:47:40.477Z,11.93
2018-09-14T22:50:07.673Z,11.17
2018-09-14T22:52:34.824Z,12.43
2018-09-14T22:55:02.000Z,13.23
2018-09-14T22:57:29.175Z,9.00
2018-09-14T22:59:56.338Z,10.63
2018-09-14T23:02:23.522Z,10.40
2018-09-14T23:04:50.690Z,9.40
2018-09-14T23:07:17.882Z,8.50
2018-09-14T23:09:45.038Z,7.97
2018-09-14T23:12:12.207Z,10.23
2018-09-14T23:14:39.420Z,10.97
2018-09-14T23:17:06.911Z,10.63
2018-09-14T23:19:34.098Z,6.83
2018-09-14T23:22:01.282Z,9.07
2018-09-14T23:24:28.433Z,11.57
2018-09-14T23:26:55.630Z,5.47
2018-09-14T23:29:22.810Z,8.17
2018-09-14T23:31:49.998Z,12.60
2018-09-14T23:34:17.142Z,8.87
2018-09-14T23:36:44.323Z,8.60
2018-09-14T23:39:12.246Z,7.73
2018-09-14T23:41:39.523Z,8.43
2018-09-14T23:44:06.673Z,9.60
2018-09-14T23:46:33.837Z,9.30
2018-09-14T23:49:01.090Z,12.70
2018-09-14T23:51:28.297Z,13.27
2018-09-14T23:53:55.442Z,6.80
2018-09-14T23:56:22.664Z,10.60
2018-09-14T23:58:49.826Z,15.10
